Time;durP1;ratioP1;P1;durP2;ratioP2;P2;SDS_P1;SDS_P2;PMS_P1;PMS_P2;Temp;Humidity;BMP_temperature;BMP_pressure;BME280_temperature;BME280_humidity;BME280_pressure;Samples;Min_cycle;Max_cycle;Signal;HPM_P1;HPM_P2
2021/10/02 00:41:56;;;;;;;3.00;2.45;;;9.40;99.90;;;;;;5036288;28;20049;-86
2021/10/02 00:44:43;;;;;;;2.97;1.80;;;9.40;99.90;;;;;;5036293;28;20050;-86
2021/10/02 00:47:13;;;;;;;3.72;2.10;;;9.40;99.90;;;;;;5034658;28;20067;-86
2021/10/02 00:49:42;;;;;;;2.10;1.95;;;9.40;99.90;;;;;;5035142;28;20045;-86
2021/10/02 00:52:12;;;;;;;3.03;2.10;;;9.40;99.90;;;;;;5034958;28;20049;-86
2021/10/02 00:54:39;;;;;;;2.60;2.10;;;9.40;99.90;;;;;;5036007;28;20413;-86
2021/10/02 00:57:06;;;;;;;2.63;2.10;;;9.30;99.90;;;;;;5034645;28;20056;-86
2021/10/02 00:59:33;;;;;;;2.17;1.88;;;9.40;99.90;;;;;;5034817;28;20128;-86
2021/10/02 01:02:23;;;;;;;2.50;2.00;;;9.40;99.90;;;;;;5034958;28;20071;-86
2021/10/02 01:05:12;;;;;;;2.53;2.10;;;9.30;99.90;;;;;;5035025;28;20575;-86
2021/10/02 01:07:46;;;;;;;2.35;2.10;;;9.30;99.90;;;;;;5036023;28;20072;-86
2021/10/02 01:10:40;;;;;;;2.40;2.03;;;9.30;99.90;;;;;;5034840;28;20049;-86
2021/10/02 01:13:19;;;;;;;5.13;2.15;;;9.20;99.90;;;;;;5039803;28;20132;-86
2021/10/02 01:15:51;;;;;;;2.72;2.40;;;9.10;99.90;;;;;;5041067;28;20053;-86
2021/10/02 01:18:28;;;;;;;3.72;2.08;;;9.10;99.90;;;;;;5034657;28;20486;-86
2021/10/02 01:21:31;;;;;;;4.78;2.33;;;9.10;99.90;;;;;;5035483;28;20049;-86
2021/10/02 01:24:00;;;;;;;3.67;2.10;;;9.10;99.90;;;;;;5034500;28;20057;-86
2021/10/02 01:26:51;;;;;;;2.30;2.10;;;9.10;99.90;;;;;;5034349;28;20433;-86
2021/10/02 01:29:19;;;;;;;2.53;2.30;;;9.10;99.90;;;;;;5034069;28;20053;-85
2021/10/02 01:32:06;;;;;;;2.40;2.20;;;9.00;99.90;;;;;;5034497;28;20053;-85
2021/10/02 01:34:42;;;;;;;1.88;1.77;;;9.00;99.90;;;;;;5034212;28;20050;-86
2021/10/02 01:48:08;;;;;;;2.30;2.10;;;8.80;99.90;;;;;;5035129;28;20041;-85
2021/10/02 01:50:38;;;;;;;2.63;2.28;;;8.80;99.90;;;;;;5034204;28;20045;-85
2021/10/02 01:53:06;;;;;;;3.03;2.10;;;8.80;99.90;;;;;;5033909;28;20045;-86
2021/10/02 01:55:35;;;;;;;3.85;2.70;;;8.70;99.90;;;;;;5033671;28;20064;-85
2021/10/02 01:58:06;;;;;;;2.80;2.60;;;8.70;99.90;;;;;;5033872;28;20053;-86
2021/10/02 02:00:38;;;;;;;3.38;2.70;;;8.60;99.90;;;;;;5033852;28;20060;-86
2021/10/02 02:03:07;;;;;;;3.00;2.63;;;8.60;99.90;;;;;;5034588;28;20057;-85
2021/10/02 02:05:35;;;;;;;3.15;2.63;;;8.60;99.90;;;;;;5034435;28;20128;-85
2021/10/02 02:08:06;;;;;;;3.55;3.28;;;8.60;99.90;;;;;;5034510;28;20060;-85
2021/10/02 02:10:33;;;;;;;2.95;2.58;;;8.60;99.90;;;;;;5034453;28;20413;-85
2021/10/02 02:13:01;;;;;;;5.57;2.78;;;8.60;99.90;;;;;;5033124;28;20502;-85
2021/10/02 02:15:30;;;;;;;3.95;2.88;;;8.60;99.90;;;;;;5033222;28;20104;-86
2021/10/02 02:18:02;;;;;;;4.72;2.35;;;8.60;99.90;;;;;;5034322;28;20136;-85
2021/10/02 02:20:34;;;;;;;3.20;2.90;;;8.60;99.90;;;;;;5033551;28;20049;-85
2021/10/02 02:23:02;;;;;;;2.87;2.67;;;8.60;99.90;;;;;;5033356;28;20041;-85
2021/10/02 02:25:30;;;;;;;2.83;2.20;;;8.70;99.90;;;;;;5034166;28;20334;-86
2021/10/02 02:27:57;;;;;;;2.60;2.50;;;8.60;99.90;;;;;;5034405;28;20056;-85
2021/10/02 02:30:24;;;;;;;2.90;2.65;;;8.70;99.90;;;;;;5035584;28;20053;-86
2021/10/02 02:32:51;;;;;;;4.05;2.83;;;8.70;99.90;;;;;;5042682;28;20136;-85
2021/10/02 02:35:22;;;;;;;5.32;2.55;;;8.70;99.90;;;;;;5035075;28;20549;-85
2021/10/02 02:37:50;;;;;;;4.00;2.70;;;8.80;99.90;;;;;;5033903;28;20059;-85
2021/10/02 02:40:17;;;;;;;4.55;2.40;;;8.70;99.90;;;;;;5033141;28;20046;-85
2021/10/02 02:42:44;;;;;;;5.72;2.40;;;8.70;99.90;;;;;;5033733;28;20077;-85
2021/10/02 02:45:13;;;;;;;3.92;2.78;;;8.70;99.90;;;;;;5032835;28;20081;-85
2021/10/02 02:47:46;;;;;;;3.15;2.75;;;8.80;99.90;;;;;;5034081;28;20425;-85
2021/10/02 02:50:26;;;;;;;3.20;3.00;;;8.70;99.90;;;;;;5032972;28;20161;-85
2021/10/02 02:53:15;;;;;;;2.72;2.53;;;8.60;99.90;;;;;;5032737;28;20045;-85
2021/10/02 02:55:57;;;;;;;5.28;4.53;;;8.70;99.90;;;;;;5032703;28;20050;-86
2021/10/02 02:58:28;;;;;;;6.65;3.20;;;8.60;99.90;;;;;;5037021;28;20113;-85
2021/10/02 03:01:00;;;;;;;8.63;3.50;;;8.70;99.90;;;;;;5034309;28;20132;-85
2021/10/02 03:03:32;;;;;;;5.13;2.50;;;8.70;99.90;;;;;;5032988;28;20427;-86
2021/10/02 03:06:04;;;;;;;7.18;2.60;;;8.70;99.90;;;;;;5032636;28;20046;-85
2021/10/02 03:08:37;;;;;;;2.78;2.58;;;8.70;99.90;;;;;;5032826;28;20132;-86
2021/10/02 03:11:05;;;;;;;2.92;2.72;;;8.70;99.90;;;;;;5033583;28;20052;-85
2021/10/02 03:13:36;;;;;;;3.28;3.00;;;8.70;99.90;;;;;;5032742;28;20069;-85
2021/10/02 03:16:12;;;;;;;3.40;2.60;;;8.60;99.90;;;;;;5032305;28;20761;-84
2021/10/02 03:18:44;;;;;;;2.75;2.55;;;8.70;99.90;;;;;;5033717;28;20516;-85
2021/10/02 03:21:12;;;;;;;5.13;2.50;;;8.70;99.90;;;;;;5032392;28;20045;-85
2021/10/02 03:23:41;;;;;;;3.70;2.78;;;8.80;99.90;;;;;;5032449;28;20168;-86
2021/10/02 03:26:08;;;;;;;2.75;2.50;;;8.70;99.90;;;;;;5032180;28;20402;-85
2021/10/02 03:28:35;;;;;;;2.75;2.55;;;8.70;99.90;;;;;;5033441;28;20071;-85
2021/10/02 03:31:03;;;;;;;2.90;2.40;;;8.70;99.90;;;;;;5032204;28;20046;-85
2021/10/02 03:33:30;;;;;;;2.88;2.78;;;8.70;99.90;;;;;;5033372;28;20474;-86
2021/10/02 03:35:58;;;;;;;2.75;2.55;;;8.70;99.90;;;;;;5031988;28;20055;-85
2021/10/02 03:38:25;;;;;;;3.63;2.78;;;8.70;99.90;;;;;;5032351;28;20077;-84
2021/10/02 03:41:01;;;;;;;4.47;2.83;;;8.80;99.90;;;;;;5032103;28;20055;-85
2021/10/02 03:43:32;;;;;;;3.35;2.67;;;8.80;99.90;;;;;;5032358;28;20139;-85
2021/10/02 03:46:00;;;;;;;2.88;2.50;;;8.80;99.90;;;;;;5031989;28;20045;-86
2021/10/02 03:48:28;;;;;;;3.17;2.97;;;8.80;99.90;;;;;;5034408;28;20050;-86
2021/10/02 03:50:55;;;;;;;3.47;2.80;;;8.80;99.90;;;;;;5041249;28;20137;-85
2021/10/02 03:53:21;;;;;;;2.70;2.50;;;8.80;99.90;;;;;;5033556;28;20483;-86
2021/10/02 03:55:48;;;;;;;3.55;2.70;;;8.80;99.90;;;;;;5031927;28;20072;-85
2021/10/02 03:58:15;;;;;;;4.43;2.75;;;8.80;99.90;;;;;;5032074;28;20049;-85
2021/10/02 04:00:42;;;;;;;2.90;2.28;;;8.80;99.90;;;;;;5031910;28;20236;-86
2021/10/02 04:03:09;;;;;;;5.15;2.78;;;8.70;99.90;;;;;;5032928;28;20119;-85
2021/10/02 04:05:36;;;;;;;2.85;2.42;;;8.80;99.90;;;;;;5031580;28;20049;-85
2021/10/02 04:08:02;;;;;;;2.72;2.53;;;8.70;99.90;;;;;;5032098;28;20045;-86
2021/10/02 04:10:29;;;;;;;2.97;2.78;;;8.80;99.90;;;;;;5031331;28;20063;-85
2021/10/02 04:12:56;;;;;;;2.63;2.50;;;8.70;99.90;;;;;;5033107;28;20057;-85
2021/10/02 04:15:24;;;;;;;2.70;2.50;;;8.80;99.90;;;;;;5031481;28;20174;-85
2021/10/02 04:17:51;;;;;;;3.15;2.88;;;8.80;99.90;;;;;;5031358;28;20049;-85
2021/10/02 04:20:18;;;;;;;2.65;2.45;;;8.90;99.90;;;;;;5031831;28;20577;-85
2021/10/02 04:22:44;;;;;;;2.80;2.60;;;8.90;99.90;;;;;;5031848;28;20504;-85
2021/10/02 04:25:13;;;;;;;8.02;3.40;;;8.90;99.90;;;;;;5031420;28;20428;-85
2021/10/02 04:27:40;;;;;;;2.40;2.30;;;8.80;99.90;;;;;;5031679;28;20060;-85
2021/10/02 04:30:07;;;;;;;3.72;3.38;;;8.90;99.90;;;;;;5031629;28;20045;-86
2021/10/02 04:32:34;;;;;;;3.08;2.80;;;8.90;99.90;;;;;;5032829;28;20054;-85
2021/10/02 04:35:01;;;;;;;3.15;2.95;;;9.00;99.90;;;;;;5031774;28;20045;-86
2021/10/02 04:37:28;;;;;;;3.10;2.63;;;9.00;99.90;;;;;;5031736;28;20142;-85
2021/10/02 04:39:54;;;;;;;2.53;2.42;;;9.00;99.90;;;;;;5034093;28;20391;-85
2021/10/02 04:42:21;;;;;;;5.97;3.30;;;9.10;99.90;;;;;;5035451;28;20091;-85
2021/10/02 04:44:48;;;;;;;2.80;2.60;;;9.20;99.90;;;;;;5035110;28;20045;-86
2021/10/02 04:47:15;;;;;;;3.85;2.58;;;9.20;99.90;;;;;;5034572;28;20222;-85
2021/10/02 04:49:44;;;;;;;2.53;2.38;;;9.20;99.90;;;;;;5034803;28;20049;-85
2021/10/02 04:52:11;;;;;;;5.90;2.65;;;9.20;99.90;;;;;;5035946;28;20162;-85
2021/10/02 04:54:38;;;;;;;2.83;2.50;;;9.20;99.90;;;;;;5035023;28;20055;-85
2021/10/02 04:57:04;;;;;;;2.80;2.60;;;9.20;99.90;;;;;;5035852;28;20064;-86
2021/10/02 04:59:31;;;;;;;2.70;2.50;;;9.10;99.90;;;;;;5034984;28;20041;-85
2021/10/02 05:01:58;;;;;;;4.63;2.50;;;9.10;99.90;;;;;;5035782;28;20051;-85
2021/10/02 05:04:24;;;;;;;2.53;2.35;;;9.10;99.90;;;;;;5034960;28;20049;-84
2021/10/02 05:06:51;;;;;;;3.22;2.40;;;9.10;99.90;;;;;;5039292;28;20052;-86
2021/10/02 05:09:18;;;;;;;3.22;2.60;;;9.10;99.90;;;;;;5043340;28;20105;-85
2021/10/02 05:11:45;;;;;;;2.42;2.30;;;9.00;99.90;;;;;;5035906;28;20049;-86
2021/10/02 05:14:12;;;;;;;2.92;2.72;;;9.00;99.90;;;;;;5034645;28;20045;-85
2021/10/02 05:16:39;;;;;;;4.18;2.60;;;9.00;99.90;;;;;;5035369;28;20058;-85
2021/10/02 05:19:05;;;;;;;3.88;2.90;;;9.00;99.90;;;;;;5034587;28;20092;-85
2021/10/02 05:21:32;;;;;;;3.17;2.90;;;9.00;99.90;;;;;;5035570;28;20056;-85
2021/10/02 05:23:59;;;;;;;3.63;3.28;;;9.00;99.90;;;;;;5034513;28;20053;-85
2021/10/02 05:26:26;;;;;;;2.72;2.53;;;9.10;99.90;;;;;;5034049;28;20049;-85
2021/10/02 05:28:52;;;;;;;4.57;3.15;;;9.00;99.90;;;;;;5034336;28;20049;-85
2021/10/02 05:31:19;;;;;;;3.00;2.70;;;9.00;99.90;;;;;;5035260;28;20409;-85
2021/10/02 05:33:46;;;;;;;3.00;2.67;;;9.00;99.90;;;;;;5034424;28;20049;-85
2021/10/02 05:36:13;;;;;;;5.93;2.90;;;9.00;99.90;;;;;;5034222;28;20048;-85
2021/10/02 05:38:40;;;;;;;3.10;2.90;;;9.00;99.90;;;;;;5034248;28;20111;-86
2021/10/02 05:41:11;;;;;;;3.03;2.55;;;8.90;99.90;;;;;;5034345;28;20084;-85
2021/10/02 05:43:38;;;;;;;3.28;2.28;;;9.00;99.90;;;;;;5035056;28;20520;-85
2021/10/02 05:46:04;;;;;;;2.65;2.50;;;9.00;99.90;;;;;;5033916;28;20048;-85
2021/10/02 05:48:31;;;;;;;12.30;3.33;;;9.00;99.90;;;;;;5035059;28;20560;-85
2021/10/02 05:50:58;;;;;;;11.85;3.00;;;9.00;99.90;;;;;;5033775;28;20059;-85
2021/10/02 05:53:24;;;;;;;2.92;2.70;;;9.10;99.90;;;;;;5033765;28;20041;-85
2021/10/02 05:55:52;;;;;;;5.25;2.67;;;9.10;99.90;;;;;;5033573;28;20045;-85
2021/10/02 05:58:19;;;;;;;3.03;2.30;;;9.20;99.90;;;;;;5033862;28;20056;-85
2021/10/02 06:00:46;;;;;;;2.63;2.47;;;9.20;99.90;;;;;;5033728;28;20056;-85
2021/10/02 06:03:13;;;;;;;2.70;2.50;;;9.20;99.90;;;;;;5033608;28;20049;-84
2021/10/02 06:05:40;;;;;;;2.53;2.42;;;9.20;99.90;;;;;;5033623;28;20479;-85
2021/10/02 06:08:07;;;;;;;5.40;2.80;;;9.20;99.90;;;;;;5032355;28;20064;-85
2021/10/02 06:10:33;;;;;;;4.85;2.40;;;9.30;99.90;;;;;;5032724;28;20175;-86
2021/10/02 06:13:00;;;;;;;2.53;2.42;;;9.30;99.90;;;;;;5034056;28;20049;-85
2021/10/02 06:15:27;;;;;;;2.80;2.60;;;9.40;99.90;;;;;;5033271;28;20065;-85
2021/10/02 06:17:54;;;;;;;3.28;2.58;;;9.50;99.90;;;;;;5034262;28;20413;-86
2021/10/02 06:20:24;;;;;;;5.30;2.50;;;9.50;99.90;;;;;;5032954;28;20046;-85
2021/10/02 06:22:51;;;;;;;4.40;2.65;;;9.60;99.90;;;;;;5033220;28;20050;-85
2021/10/02 06:25:19;;;;;;;5.07;2.85;;;9.70;99.90;;;;;;5034930;28;20049;-86
2021/10/02 06:27:46;;;;;;;2.42;2.25;;;9.70;99.90;;;;;;5039328;28;20119;-86
2021/10/02 06:30:13;;;;;;;5.13;2.70;;;9.90;99.90;;;;;;5033984;28;20052;-85
2021/10/02 06:32:41;;;;;;;4.07;2.25;;;10.10;99.90;;;;;;5033267;28;20052;-86
2021/10/02 06:35:08;;;;;;;4.40;2.55;;;10.30;99.90;;;;;;5032071;28;20051;-86
2021/10/02 06:37:36;;;;;;;8.40;3.55;;;10.40;99.90;;;;;;5031592;28;20088;-86
2021/10/02 06:40:05;;;;;;;6.60;3.42;;;10.50;99.90;;;;;;5033404;28;20046;-85
2021/10/02 06:42:32;;;;;;;3.72;3.10;;;10.60;99.90;;;;;;5033070;28;20136;-86
2021/10/02 06:44:59;;;;;;;6.43;2.63;;;10.60;99.90;;;;;;5033693;28;20075;-85
2021/10/02 06:47:26;;;;;;;5.03;2.45;;;10.80;99.90;;;;;;5033077;28;20076;-86
2021/10/02 06:49:57;;;;;;;4.95;2.30;;;11.00;99.90;;;;;;5032666;28;20141;-86
2021/10/02 06:52:25;;;;;;;2.60;2.08;;;11.20;99.90;;;;;;5034114;28;20463;-86
2021/10/02 06:54:53;;;;;;;4.45;2.30;;;11.40;99.90;;;;;;5033407;28;20048;-85
2021/10/02 06:57:21;;;;;;;4.25;2.17;;;11.60;99.90;;;;;;5031778;28;20056;-86
2021/10/02 06:59:48;;;;;;;5.05;2.28;;;11.70;99.90;;;;;;5032363;28;20120;-86
2021/10/02 07:02:15;;;;;;;2.63;2.30;;;11.80;99.90;;;;;;5031739;28;20049;-86
2021/10/02 07:04:42;;;;;;;9.15;2.13;;;11.80;99.90;;;;;;5033385;28;20087;-85
2021/10/02 07:07:09;;;;;;;7.93;2.35;;;11.70;99.90;;;;;;5033351;28;20405;-85
2021/10/02 07:09:36;;;;;;;13.38;6.80;;;11.50;99.90;;;;;;5031923;28;20055;-85
2021/10/02 07:12:03;;;;;;;13.25;6.60;;;11.30;99.90;;;;;;5033490;28;20136;-85
2021/10/02 07:14:30;;;;;;;14.23;7.50;;;11.20;99.90;;;;;;5032451;28;20096;-86
2021/10/02 07:16:56;;;;;;;11.85;4.50;;;11.30;99.90;;;;;;5032268;28;20045;-85
2021/10/02 07:19:23;;;;;;;4.03;2.50;;;11.80;99.90;;;;;;5032447;28;20057;-86
2021/10/02 07:21:50;;;;;;;5.53;2.70;;;12.30;99.90;;;;;;5032226;28;20046;-85
2021/10/02 07:24:17;;;;;;;9.05;3.20;;;12.80;99.90;;;;;;5032111;28;20049;-87
2021/10/02 07:26:44;;;;;;;4.25;2.65;;;13.10;99.90;;;;;;5032160;28;20095;-86
2021/10/02 07:29:11;;;;;;;5.32;2.20;;;13.50;99.90;;;;;;5032706;28;20388;-86
2021/10/02 07:31:38;;;;;;;10.07;2.67;;;14.10;99.90;;;;;;5033306;28;20050;-86
2021/10/02 07:34:05;;;;;;;4.05;1.92;;;15.20;99.90;;;;;;5031663;28;20037;-86
2021/10/02 07:36:32;;;;;;;1.75;1.58;;;16.20;99.90;;;;;;5031708;28;20047;-86
2021/10/02 07:38:59;;;;;;;4.30;1.65;;;17.10;99.90;;;;;;5031724;28;20395;-86
2021/10/02 07:41:26;;;;;;;3.25;1.40;;;18.60;99.90;;;;;;5032329;28;20067;-86
2021/10/02 07:44:02;;;;;;;2.05;1.40;;;19.10;99.90;;;;;;5036630;28;20092;-86
2021/10/02 07:46:31;;;;;;;2.33;1.50;;;19.70;99.90;;;;;;5041424;28;20049;-85
2021/10/02 07:48:58;;;;;;;1.80;1.35;;;20.80;99.90;;;;;;5032885;28;20076;-86
2021/10/02 07:51:26;;;;;;;3.47;0.93;;;21.80;99.90;;;;;;5032540;28;20124;-86
2021/10/02 07:53:55;;;;;;;1.98;1.30;;;22.40;98.30;;;;;;5033290;28;20045;-86
2021/10/02 07:56:22;;;;;;;2.28;1.38;;;22.70;95.50;;;;;;5031885;28;20053;-88
2021/10/02 07:58:54;;;;;;;1.73;1.33;;;23.40;93.40;;;;;;5032222;28;20107;-87
2021/10/02 08:01:22;;;;;;;1.35;1.20;;;23.60;91.80;;;;;;5032072;28;20136;-86
2021/10/02 08:03:51;;;;;;;1.13;1.02;;;24.00;90.50;;;;;;5032024;28;20411;-87
2021/10/02 08:06:38;;;;;;;1.92;1.05;;;24.10;88.30;;;;;;5031989;28;20513;-87
2021/10/02 08:09:10;;;;;;;1.67;1.20;;;24.00;87.90;;;;;;5032509;28;20124;-87
2021/10/02 08:11:37;;;;;;;1.77;1.23;;;23.70;87.90;;;;;;5033088;28;20060;-86
2021/10/02 08:14:06;;;;;;;1.58;1.10;;;23.50;88.10;;;;;;5034774;28;20049;-87
2021/10/02 08:16:35;;;;;;;4.57;1.33;;;23.90;86.60;;;;;;5035489;28;20050;-87
2021/10/02 08:19:05;;;;;;;1.77;1.10;;;23.70;86.30;;;;;;5036094;28;20052;-87
2021/10/02 08:21:33;;;;;;;4.13;1.25;;;22.90;86.20;;;;;;5036793;28;20136;-87
2021/10/02 08:24:03;;;;;;;2.70;1.05;;;22.20;89.00;;;;;;5035939;28;20095;-88
2021/10/02 08:26:31;;;;;;;2.00;1.13;;;21.10;89.90;;;;;;5036729;28;20117;-87
2021/10/02 08:28:58;;;;;;;4.80;1.30;;;20.30;92.30;;;;;;5035998;28;20506;-85
2021/10/02 08:31:25;;;;;;;1.20;1.10;;;19.40;94.50;;;;;;5035935;28;20046;-87
2021/10/02 08:34:10;;;;;;;2.15;0.95;;;19.90;96.50;;;;;;5036746;28;20132;-86
2021/10/02 08:36:37;;;;;;;2.00;0.85;;;20.30;95.90;;;;;;5034776;28;20064;-89
2021/10/02 08:39:04;;;;;;;2.85;1.15;;;21.10;93.60;;;;;;5035252;28;20056;-90
2021/10/02 08:41:31;;;;;;;1.00;0.85;;;21.30;93.10;;;;;;5037441;28;20051;-87
2021/10/02 08:44:01;;;;;;;1.85;0.93;;;21.90;92.20;;;;;;5037016;28;20132;-87
2021/10/02 08:46:28;;;;;;;2.38;0.93;;;22.70;90.70;;;;;;5035887;28;20449;-85
2021/10/02 08:49:26;;;;;;;2.80;1.10;;;23.20;89.50;;;;;;5035329;28;20512;-88
2021/10/02 08:51:53;;;;;;;4.35;1.00;;;25.00;83.70;;;;;;5035456;28;20045;-87
2021/10/02 08:54:21;;;;;;;2.22;1.10;;;24.60;83.50;;;;;;5035547;28;20140;-91
2021/10/02 08:56:51;;;;;;;4.03;0.98;;;24.10;82.00;;;;;;5035162;28;20041;-87
2021/10/02 08:59:20;;;;;;;1.65;1.00;;;24.50;78.90;;;;;;5035158;28;20064;-87
2021/10/02 09:01:47;;;;;;;1.65;0.95;;;24.50;78.30;;;;;;5038129;28;20136;-88
2021/10/02 09:04:14;;;;;;;0.80;0.80;;;23.40;81.00;;;;;;5056353;28;20045;-92
2021/10/02 09:06:41;;;;;;;1.23;0.95;;;22.60;81.90;;;;;;5040878;28;20383;-93
2021/10/02 09:09:08;;;;;;;1.08;0.98;;;21.90;83.80;;;;;;5035773;28;20136;-87
2021/10/02 09:11:35;;;;;;;0.90;0.90;;;21.80;85.30;;;;;;5035040;28;20037;-87
2021/10/02 09:14:03;;;;;;;2.28;0.88;;;22.40;86.50;;;;;;5035373;28;20088;-86
2021/10/02 09:16:30;;;;;;;2.50;1.15;;;22.50;85.00;;;;;;5035637;28;20062;-88
2021/10/02 09:18:57;;;;;;;0.80;0.80;;;23.10;86.90;;;;;;5035136;28;20486;-86
2021/10/02 09:21:24;;;;;;;2.80;0.88;;;24.80;78.70;;;;;;5035161;28;20068;-90
2021/10/02 09:23:52;;;;;;;0.68;0.63;;;24.50;76.90;;;;;;5035343;28;20064;-92
2021/10/02 09:26:42;;;;;;;1.25;1.00;;;25.60;76.20;;;;;;5034487;28;20505;-91
2021/10/02 09:29:08;;;;;;;1.25;0.90;;;24.90;74.10;;;;;;5036796;28;20417;-88
2021/10/02 09:31:35;;;;;;;2.08;0.60;;;24.50;75.80;;;;;;5035252;28;20113;-93
2021/10/02 09:34:02;;;;;;;1.10;0.77;;;24.70;76.10;;;;;;5035469;28;20042;-88
2021/10/02 09:36:29;;;;;;;1.88;0.90;;;25.00;74.70;;;;;;5036147;28;20498;-92
2021/10/02 09:38:56;;;;;;;1.38;0.70;;;24.50;73.60;;;;;;5034792;28;20053;-89
2021/10/02 09:41:29;;;;;;;1.70;1.10;;;23.70;75.30;;;;;;5034484;28;20054;-88
2021/10/02 09:43:57;;;;;;;1.83;0.90;;;23.80;78.00;;;;;;5035337;28;20589;-86
2021/10/02 09:46:35;;;;;;;3.25;0.80;;;24.60;76.30;;;;;;5034687;28;20071;-88
2021/10/02 09:49:02;;;;;;;1.70;0.88;;;25.40;73.40;;;;;;5035740;28;20083;-91
2021/10/02 09:51:43;;;;;;;0.98;0.90;;;25.60;70.40;;;;;;5035346;28;20045;-86
2021/10/02 09:54:39;;;;;;;1.75;1.10;;;25.70;70.70;;;;;;5034947;28;20076;-88
2021/10/02 09:57:14;;;;;;;2.42;0.80;;;25.00;70.50;;;;;;5034713;28;20482;-87
2021/10/02 09:59:41;;;;;;;1.45;0.82;;;25.20;72.50;;;;;;5035938;28;20051;-89
2021/10/02 10:02:19;;;;;;;2.70;0.90;;;25.10;70.50;;;;;;5034979;28;20512;-90
2021/10/02 10:04:50;;;;;;;12.20;1.52;;;24.50;73.20;;;;;;5035959;28;20050;-86
2021/10/02 10:07:18;;;;;;;2.55;1.05;;;23.60;75.00;;;;;;5035394;28;20063;-88
2021/10/02 10:10:12;;;;;;;2.53;1.00;;;24.10;76.00;;;;;;5034242;28;20049;-91
2021/10/02 10:12:41;;;;;;;9.73;1.88;;;24.50;74.00;;;;;;5034873;28;20046;-87
2021/10/02 10:15:31;;;;;;;2.55;0.95;;;23.90;72.10;;;;;;5034232;28;20055;-93
2021/10/02 10:17:59;;;;;;;1.23;1.10;;;24.10;76.10;;;;;;5034726;28;20088;-91
2021/10/02 10:20:36;;;;;;;2.33;0.90;;;24.60;73.00;;;;;;5042229;28;20101;-91
2021/10/02 10:23:05;;;;;;;0.93;0.93;;;25.40;71.90;;;;;;5051493;28;20132;-95
2021/10/02 10:25:46;;;;;;;1.63;1.08;;;26.00;71.10;;;;;;5036423;28;20048;-90
2021/10/02 10:28:17;;;;;;;1.88;0.98;;;26.20;70.20;;;;;;5035188;28;20109;-90
2021/10/02 10:30:47;;;;;;;3.35;1.17;;;26.10;67.00;;;;;;5033697;28;20045;-90
2021/10/02 10:33:16;;;;;;;1.58;1.00;;;26.60;70.10;;;;;;5037859;28;20060;-93
2021/10/02 10:35:52;;;;;;;2.58;1.00;;;25.70;67.80;;;;;;5036694;28;20045;-92
2021/10/02 10:38:23;;;;;;;3.40;0.93;;;26.20;68.40;;;;;;5034901;28;20049;-90
2021/10/02 10:40:53;;;;;;;3.47;1.10;;;26.20;66.80;;;;;;5034133;28;20485;-91
2021/10/02 10:43:20;;;;;;;2.35;0.82;;;26.20;68.60;;;;;;5034527;28;20053;-87
2021/10/02 10:45:47;;;;;;;2.55;0.90;;;27.00;67.40;;;;;;5034958;28;20052;-87
2021/10/02 10:48:14;;;;;;;2.25;1.00;;;27.90;66.10;;;;;;5036217;28;20055;-88
2021/10/02 10:50:43;;;;;;;1.65;1.10;;;28.20;62.40;;;;;;5035281;28;20087;-87
2021/10/02 10:53:10;;;;;;;1.95;1.10;;;27.90;62.50;;;;;;5034657;28;20046;-87
2021/10/02 10:55:55;;;;;;;1.23;0.93;;;27.50;63.80;;;;;;5034612;28;20067;-87
2021/10/02 10:58:25;;;;;;;1.15;0.90;;;27.90;62.20;;;;;;5036156;28;20132;-87
2021/10/02 11:00:52;;;;;;;1.35;1.10;;;28.30;64.30;;;;;;5035914;28;20076;-88
2021/10/02 11:03:46;;;;;;;1.45;0.98;;;28.00;62.00;;;;;;5034722;28;20307;-92
2021/10/02 11:06:18;;;;;;;2.33;1.20;;;27.40;63.70;;;;;;5038126;28;20054;-86
2021/10/02 11:09:02;;;;;;;2.10;1.08;;;28.00;63.90;;;;;;5038078;28;20053;-89
2021/10/02 11:11:44;;;;;;;;;;;28.40;61.80;;;;;;5035520;28;20148;-87
2021/10/02 11:14:16;;;;;;;4.47;1.30;;;28.80;63.10;;;;;;5033546;28;20004;-88
2021/10/02 11:17:01;;;;;;;3.63;1.30;;;29.40;61.50;;;;;;5033541;28;20140;-87
2021/10/02 11:19:32;;;;;;;2.85;1.30;;;29.00;59.70;;;;;;5035060;28;20060;-88
2021/10/02 11:22:04;;;;;;;1.70;1.60;;;28.90;60.80;;;;;;5036652;28;20088;-90
2021/10/02 11:24:39;;;;;;;1.67;1.13;;;28.00;59.90;;;;;;5033855;28;20067;-88
2021/10/02 11:27:07;;;;;;;1.88;1.30;;;27.20;61.20;;;;;;5032492;28;20052;-88
2021/10/02 11:29:38;;;;;;;1.58;1.10;;;26.90;62.70;;;;;;5033687;28;20080;-86
2021/10/02 11:32:17;;;;;;;3.97;1.10;;;26.60;62.60;;;;;;5034605;28;20116;-90
2021/10/02 11:35:13;;;;;;;4.72;1.27;;;26.80;64.60;;;;;;5030581;28;20063;-91
2021/10/02 11:37:56;;;;;;;1.95;1.50;;;26.90;65.20;;;;;;5033610;28;20067;-94
2021/10/02 11:40:35;;;;;;;1.77;1.15;;;27.20;63.20;;;;;;5037668;28;20049;-92
2021/10/02 11:43:17;;;;;;;1.83;1.15;;;26.70;62.20;;;;;;5050556;28;20038;-87
2021/10/02 11:45:46;;;;;;;2.13;0.95;;;25.50;63.20;;;;;;5033886;28;20140;-94
2021/10/02 11:48:19;;;;;;;1.17;1.00;;;25.10;64.50;;;;;;5036437;28;20092;-92
2021/10/02 11:51:07;;;;;;;2.88;0.90;;;24.60;63.00;;;;;;5037302;28;20053;-92
2021/10/02 11:54:08;;;;;;;2.17;0.98;;;24.80;65.60;;;;;;5038758;28;20041;-92
2021/10/02 11:56:37;;;;;;;1.33;0.98;;;25.10;64.50;;;;;;5037251;28;20076;-93
2021/10/02 11:59:06;;;;;;;1.50;1.00;;;25.20;64.10;;;;;;5037892;28;20052;-91
2021/10/02 12:01:33;;;;;;;1.17;1.08;;;25.70;65.10;;;;;;5039560;28;20051;-90
2021/10/02 12:04:05;;;;;;;0.82;0.82;;;25.20;65.20;;;;;;5037184;28;20122;-93
2021/10/02 12:06:35;;;;;;;1.33;1.02;;;25.10;64.30;;;;;;5037519;28;20140;-90
2021/10/02 12:09:03;;;;;;;3.80;1.05;;;25.20;65.10;;;;;;5038260;28;20112;-90
2021/10/02 12:11:29;;;;;;;1.58;1.30;;;25.30;65.90;;;;;;5037113;28;20581;-91
2021/10/02 12:13:58;;;;;;;3.33;1.98;;;25.10;64.70;;;;;;5039330;28;20486;-91
2021/10/02 12:16:33;;;;;;;1.73;1.40;;;24.60;67.80;;;;;;5037492;28;20428;-89
2021/10/02 12:19:11;;;;;;;2.55;2.08;;;24.10;68.70;;;;;;5037621;28;20054;-90
2021/10/02 12:21:38;;;;;;;5.47;1.42;;;23.50;70.30;;;;;;5038818;28;20050;-89
2021/10/02 12:24:26;;;;;;;6.55;1.90;;;22.80;72.40;;;;;;5037155;28;20408;-88
2021/10/02 12:27:05;;;;;;;1.30;1.00;;;22.70;75.00;;;;;;5036138;28;20051;-88
2021/10/02 12:29:44;;;;;;;1.30;1.20;;;22.50;74.80;;;;;;5035477;28;20084;-90
2021/10/02 12:32:22;;;;;;;1.45;1.33;;;22.40;76.60;;;;;;5036103;28;20568;-89
2021/10/02 12:34:51;;;;;;;2.20;0.90;;;22.10;75.20;;;;;;5036169;28;20413;-88
2021/10/02 12:37:33;;;;;;;1.45;1.00;;;22.00;78.20;;;;;;5036710;28;20057;-88
2021/10/02 12:40:04;;;;;;;1.80;1.30;;;21.90;78.00;;;;;;5036225;28;20049;-90
2021/10/02 12:42:38;;;;;;;5.00;1.42;;;21.70;78.30;;;;;;5037046;28;20092;-89
2021/10/02 12:45:09;;;;;;;1.20;1.10;;;21.40;75.50;;;;;;5035249;28;20057;-90
2021/10/02 12:47:36;;;;;;;2.25;1.13;;;21.40;78.70;;;;;;5037666;28;20049;-95
2021/10/02 12:50:10;;;;;;;3.00;1.30;;;21.30;77.40;;;;;;5036799;28;20046;-89
2021/10/02 12:52:37;;;;;;;1.08;0.98;;;21.20;76.60;;;;;;5036897;28;20061;-90
2021/10/02 12:55:10;;;;;;;1.30;1.20;;;21.20;76.70;;;;;;5036967;28;20069;-89
2021/10/02 12:57:38;;;;;;;1.55;1.23;;;21.20;76.40;;;;;;5036066;28;20435;-87
2021/10/02 13:00:16;;;;;;;1.88;1.42;;;21.30;79.00;;;;;;5038999;28;20049;-89
2021/10/02 13:02:47;;;;;;;1.08;0.90;;;21.20;79.30;;;;;;5035310;28;20418;-89
2021/10/02 13:05:17;;;;;;;1.23;1.10;;;21.30;79.50;;;;;;5035208;28;20064;-89
2021/10/02 13:07:52;;;;;;;1.48;1.10;;;21.40;79.60;;;;;;5035986;28;20609;-88
2021/10/02 13:10:33;;;;;;;1.45;1.02;;;21.50;76.20;;;;;;5035148;28;20045;-88
2021/10/02 13:13:02;;;;;;;0.80;0.80;;;21.50;77.60;;;;;;5035753;28;20053;-89
2021/10/02 13:15:31;;;;;;;1.65;1.00;;;21.60;78.30;;;;;;5035963;28;20135;-96
2021/10/02 13:18:12;;;;;;;1.92;0.95;;;21.60;77.80;;;;;;5035270;28;20461;-90
2021/10/02 13:20:42;;;;;;;2.67;1.30;;;21.60;77.20;;;;;;5034641;28;20135;-90
2021/10/02 13:23:17;;;;;;;1.55;1.10;;;21.50;77.80;;;;;;5034948;28;20049;-88
2021/10/02 13:25:47;;;;;;;1.15;0.93;;;21.40;79.10;;;;;;5034845;28;20061;-89
2021/10/02 13:28:26;;;;;;;3.30;1.35;;;21.50;80.00;;;;;;5035096;28;20133;-90
2021/10/02 13:30:56;;;;;;;4.40;1.38;;;21.40;79.40;;;;;;5035970;28;20064;-91
2021/10/02 13:33:23;;;;;;;2.33;1.60;;;21.20;78.10;;;;;;5035014;28;20045;-95
2021/10/02 13:35:59;;;;;;;1.40;1.30;;;21.30;78.00;;;;;;5034641;28;20076;-89
2021/10/02 13:38:40;;;;;;;2.53;1.40;;;21.00;80.50;;;;;;5035792;28;20049;-89
2021/10/02 13:41:16;;;;;;;2.70;1.40;;;20.90;80.20;;;;;;5035793;28;20060;-90
2021/10/02 13:43:55;;;;;;;1.52;1.50;;;20.80;80.20;;;;;;5035104;28;20052;-92
2021/10/02 13:46:31;;;;;;;2.08;1.30;;;20.80;84.50;;;;;;5035212;28;20049;-89
2021/10/02 13:49:00;;;;;;;3.70;1.60;;;20.90;85.60;;;;;;5036309;28;20441;-92
2021/10/02 13:51:27;;;;;;;4.72;1.80;;;20.90;81.90;;;;;;5035351;28;20053;-90
2021/10/02 13:53:54;;;;;;;3.50;1.45;;;20.90;83.60;;;;;;5034879;28;20057;-90
2021/10/02 13:56:21;;;;;;;2.35;1.45;;;20.90;86.70;;;;;;5034543;28;20048;-91
2021/10/02 13:58:48;;;;;;;3.40;1.55;;;20.90;86.40;;;;;;5034403;28;20136;-89
2021/10/02 14:01:15;;;;;;;4.00;1.75;;;21.00;85.30;;;;;;5035246;28;20045;-90